createdAt,value
2022-09-18T00:01:58.693Z,8.35
2022-09-18T00:04:25.604Z,8.32
2022-09-18T00:06:54.305Z,8.33
2022-09-18T00:09:21.285Z,8.32
2022-09-18T00:11:49.479Z,8.32
2022-09-18T00:14:19.124Z,8.36
2022-09-18T00:16:46.559Z,8.33
2022-09-18T00:19:14.259Z,8.29
2022-09-18T00:21:43.365Z,8.23
2022-09-18T00:24:12.214Z,8.21
2022-09-18T00:26:39.192Z,8.14
2022-09-18T00:29:06.510Z,8.14
2022-09-18T00:31:35.169Z,8.09
2022-09-18T00:34:04.723Z,8.09
2022-09-18T00:36:31.792Z,8.09
2022-09-18T00:38:59.521Z,8.08
2022-09-18T00:41:29.762Z,8.08
2022-09-18T00:44:39.170Z,8.07
2022-09-18T00:47:22.989Z,8.08
2022-09-18T00:49:53.411Z,8.11
2022-09-18T00:52:23.984Z,8.06
2022-09-18T00:54:55.375Z,8.04
2022-09-18T00:57:27.648Z,7.98
2022-09-18T01:02:40.625Z,7.95
2022-09-18T01:05:08.677Z,7.99
2022-09-18T01:07:48.699Z,7.95
2022-09-18T01:10:28.362Z,7.92
2022-09-18T01:13:00.229Z,7.91
2022-09-18T01:15:35.102Z,7.94
2022-09-18T01:18:09.689Z,7.92
2022-09-18T01:20:54.331Z,7.99
2022-09-18T01:23:42.328Z,8.00
2022-09-18T01:26:23.692Z,8.02
2022-09-18T01:28:57.906Z,8.00
2022-09-18T01:31:29.983Z,8.03
2022-09-18T01:34:01.677Z,8.03
2022-09-18T01:36:33.187Z,8.10
2022-09-18T01:39:07.925Z,8.13
2022-09-18T01:41:36.565Z,8.14
2022-09-18T01:44:10.261Z,8.16
2022-09-18T01:46:39.963Z,8.13
2022-09-18T01:49:11.017Z,8.09
2022-09-18T01:51:43.340Z,8.08
2022-09-18T01:54:26.873Z,8.17
2022-09-18T01:56:58.372Z,8.14
2022-09-18T01:59:31.261Z,8.10
2022-09-18T02:02:03.537Z,8.20
2022-09-18T02:04:36.073Z,8.09
2022-09-18T02:07:14.285Z,8.10
2022-09-18T02:09:41.321Z,8.10
2022-09-18T02:12:12.617Z,8.15
2022-09-18T02:14:44.874Z,8.14
2022-09-18T02:17:18.582Z,8.16
2022-09-18T02:19:51.072Z,8.16
2022-09-18T02:22:21.483Z,8.15
2022-09-18T02:24:52.031Z,8.15
2022-09-18T02:27:20.266Z,8.17
2022-09-18T02:29:49.347Z,8.15
2022-09-18T02:32:16.213Z,8.13
2022-09-18T02:34:43.150Z,8.19
2022-09-18T02:37:23.991Z,8.16
2022-09-18T02:40:07.866Z,8.06
2022-09-18T02:42:42.281Z,8.06
2022-09-18T02:45:20.657Z,7.99
2022-09-18T02:48:05.254Z,7.90
2022-09-18T02:50:41.261Z,7.87
2022-09-18T02:53:13.487Z,7.86
2022-09-18T02:55:46.038Z,7.93
2022-09-18T02:58:17.768Z,7.94
2022-09-18T03:00:48.961Z,7.92
2022-09-18T03:03:18.051Z,7.95
2022-09-18T03:05:45.225Z,8.01
2022-09-18T03:08:12.241Z,8.02
2022-09-18T03:10:39.081Z,8.06
2022-09-18T03:13:05.861Z,8.06
2022-09-18T03:15:32.707Z,8.06
2022-09-18T03:18:01.359Z,8.09
2022-09-18T03:20:28.232Z,8.07
2022-09-18T03:22:55.051Z,8.12
2022-09-18T03:25:21.870Z,8.16
2022-09-18T03:27:48.762Z,8.16
2022-09-18T03:30:15.701Z,8.20
2022-09-18T03:32:42.501Z,8.19
2022-09-18T03:35:11.012Z,8.19
2022-09-18T03:37:37.831Z,8.18
2022-09-18T03:40:05.592Z,8.20
2022-09-18T03:42:32.479Z,8.23
2022-09-18T03:44:59.322Z,8.21
2022-09-18T03:47:26.455Z,8.21
2022-09-18T03:49:53.297Z,8.18
2022-09-18T03:52:21.645Z,8.22
2022-09-18T03:54:48.466Z,8.20
2022-09-18T03:57:15.482Z,8.26
2022-09-18T03:59:42.247Z,8.21
2022-09-18T04:02:09.113Z,8.22
2022-09-18T04:04:36.024Z,8.17
2022-09-18T04:07:02.861Z,8.21
2022-09-18T04:09:31.043Z,8.24
2022-09-18T04:11:57.890Z,8.21
2022-09-18T04:14:29.817Z,8.23
2022-09-18T04:16:57.024Z,8.23
2022-09-18T04:19:23.879Z,8.22
2022-09-18T04:21:50.717Z,8.20
2022-09-18T04:24:17.576Z,8.22
2022-09-18T04:26:45.879Z,8.21
2022-09-18T04:29:12.704Z,8.20
2022-09-18T04:31:39.580Z,8.19
2022-09-18T04:34:07.284Z,8.21
2022-09-18T04:36:34.203Z,8.21
2022-09-18T04:39:01.130Z,8.22
2022-09-18T04:41:28.027Z,8.21
2022-09-18T04:43:56.263Z,8.20
2022-09-18T04:46:23.157Z,8.25
2022-09-18T04:48:50.425Z,8.28
2022-09-18T04:51:17.539Z,8.25
2022-09-18T04:53:44.354Z,8.23
2022-09-18T04:56:11.277Z,8.23
2022-09-18T04:58:38.496Z,8.24
2022-09-18T05:01:07.098Z,8.23
2022-09-18T05:03:34.241Z,8.25
2022-09-18T05:06:01.227Z,8.25
2022-09-18T05:08:28.738Z,8.27
2022-09-18T05:10:55.939Z,8.23
2022-09-18T05:13:22.953Z,8.24
2022-09-18T05:15:54.051Z,8.23
2022-09-18T05:18:22.454Z,8.24
2022-09-18T05:20:49.930Z,8.23
2022-09-18T05:23:16.729Z,8.24
2022-09-18T05:25:43.627Z,8.29
2022-09-18T05:28:13.288Z,8.28
2022-09-18T05:30:40.181Z,8.28
2022-09-18T05:33:08.228Z,8.28
2022-09-18T05:35:37.506Z,8.32
2022-09-18T05:38:04.518Z,8.31
2022-09-18T05:40:33.845Z,8.33
2022-09-18T05:43:02.928Z,8.31
2022-09-18T05:45:29.997Z,8.35
2022-09-18T05:47:59.383Z,8.41
2022-09-18T05:50:31.201Z,8.40
2022-09-18T05:53:01.063Z,8.40
2022-09-18T05:55:32.031Z,8.35
2022-09-18T05:58:00.446Z,8.37
2022-09-18T06:00:29.492Z,8.37
2022-09-18T06:02:57.751Z,8.40
2022-09-18T06:05:25.207Z,8.40
2022-09-18T06:07:54.522Z,8.45
2022-09-18T06:10:26.538Z,8.47
2022-09-18T06:13:00.438Z,8.51
2022-09-18T06:15:27.059Z,8.51
2022-09-18T06:17:53.907Z,8.53
2022-09-18T06:20:20.871Z,8.56
2022-09-18T06:22:47.698Z,8.62
2022-09-18T06:25:16.863Z,8.62
2022-09-18T06:27:45.139Z,8.62
2022-09-18T06:30:13.362Z,8.66
2022-09-18T06:32:40.210Z,8.68
2022-09-18T06:35:09.757Z,8.65
2022-09-18T06:37:36.690Z,8.64
2022-09-18T06:40:04.165Z,8.67
2022-09-18T06:42:31.074Z,8.68
2022-09-18T06:44:59.402Z,8.76
2022-09-18T06:47:26.235Z,8.84
2022-09-18T06:49:53.105Z,8.87
2022-09-18T06:52:19.953Z,8.93
2022-09-18T06:54:46.751Z,8.94
2022-09-18T06:57:13.742Z,8.92
2022-09-18T06:59:40.502Z,8.94
2022-09-18T07:02:18.663Z,8.91
2022-09-18T07:04:46.968Z,8.89
2022-09-18T07:07:13.837Z,8.93
2022-09-18T07:09:40.728Z,8.93
2022-09-18T07:12:07.842Z,8.98
2022-09-18T07:14:34.719Z,8.94
2022-09-18T07:17:01.570Z,8.96
2022-09-18T07:19:29.928Z,8.90
2022-09-18T07:21:56.698Z,8.97
2022-09-18T07:24:23.655Z,8.90
2022-09-18T07:26:50.477Z,8.94
2022-09-18T07:29:17.437Z,8.92
2022-09-18T07:31:44.342Z,8.91
2022-09-18T07:34:12.041Z,8.89
2022-09-18T07:36:40.366Z,8.97
2022-09-18T07:39:07.248Z,8.93
2022-09-18T07:41:34.204Z,8.96
2022-09-18T07:44:03.146Z,9.00
2022-09-18T07:46:30.155Z,8.99
2022-09-18T07:48:57.146Z,8.97
2022-09-18T07:51:26.262Z,8.94
2022-09-18T07:53:55.097Z,8.86
2022-09-18T07:56:22.104Z,8.81
2022-09-18T07:58:49.363Z,8.64
2022-09-18T08:01:16.341Z,8.71
2022-09-18T08:03:43.234Z,8.66
2022-09-18T08:06:10.599Z,8.59
2022-09-18T08:08:37.662Z,8.49
2022-09-18T08:11:06.352Z,8.47
2022-09-18T08:13:33.565Z,8.48
2022-09-18T08:16:00.476Z,8.66
2022-09-18T08:18:27.374Z,8.84
2022-09-18T08:20:55.589Z,8.91
2022-09-18T08:23:22.572Z,8.96
2022-09-18T08:25:49.501Z,9.05
2022-09-18T08:28:18.586Z,9.16
2022-09-18T08:30:45.674Z,9.18
2022-09-18T08:33:12.261Z,9.29
2022-09-18T08:35:39.017Z,9.49
2022-09-18T08:38:05.724Z,9.59
2022-09-18T08:40:46.485Z,9.71
2022-09-18T08:43:18.840Z,9.74
2022-09-18T08:45:52.920Z,9.76
2022-09-18T08:48:23.417Z,9.84
2022-09-18T08:50:54.304Z,9.88
2022-09-18T08:53:27.506Z,10.08
2022-09-18T08:55:54.351Z,10.21
2022-09-18T08:58:26.616Z,10.13
2022-09-18T09:01:00.422Z,10.20
2022-09-18T09:03:30.442Z,10.38
2022-09-18T09:05:58.350Z,10.39
2022-09-18T09:08:55.993Z,10.44
2022-09-18T09:11:35.581Z,10.44
2022-09-18T09:14:45.827Z,10.30
2022-09-18T09:17:18.286Z,10.21
2022-09-18T09:19:52.151Z,-147.88
2022-09-18T09:22:20.810Z,10.21
2022-09-18T09:25:02.136Z,10.27
2022-09-18T09:27:33.287Z,10.43
2022-09-18T09:30:01.993Z,10.60
2022-09-18T09:32:33.381Z,10.86
2022-09-18T09:35:05.122Z,10.79
2022-09-18T09:37:36.989Z,10.95
2022-09-18T09:40:08.611Z,10.97
2022-09-18T09:42:41.020Z,10.73
2022-09-18T09:45:11.774Z,10.53
2022-09-18T09:47:45.654Z,10.45
2022-09-18T09:50:26.904Z,10.56
2022-09-18T09:52:59.118Z,10.76
2022-09-18T09:55:27.879Z,10.77
2022-09-18T09:58:03.003Z,10.97
2022-09-18T10:00:34.236Z,11.12
2022-09-18T10:03:11.079Z,11.61
2022-09-18T10:05:40.435Z,11.74
2022-09-18T10:08:13.406Z,11.68
2022-09-18T10:10:41.856Z,11.89
2022-09-18T10:13:13.931Z,11.79
2022-09-18T10:15:41.887Z,12.17
2022-09-18T10:18:16.795Z,12.55
2022-09-18T10:20:47.250Z,12.40
2022-09-18T10:23:20.663Z,11.98
2022-09-18T10:25:53.718Z,11.75
2022-09-18T10:28:21.444Z,11.47
2022-09-18T10:30:59.050Z,11.51
2022-09-18T10:33:37.115Z,11.61
2022-09-18T10:36:21.740Z,11.55
2022-09-18T10:38:49.451Z,11.55
2022-09-18T10:41:24.828Z,11.63
2022-09-18T10:44:06.336Z,11.33
2022-09-18T10:46:36.514Z,11.38
2022-09-18T10:49:18.884Z,11.55
2022-09-18T10:51:46.497Z,11.93
2022-09-18T10:54:19.430Z,11.96
2022-09-18T10:56:46.615Z,11.93
2022-09-18T10:59:35.144Z,11.93
2022-09-18T11:02:05.242Z,11.83
2022-09-18T11:04:35.240Z,11.84
2022-09-18T11:07:07.927Z,11.66
2022-09-18T11:09:39.172Z,11.65
2022-09-18T11:12:14.675Z,11.84
2022-09-18T11:14:45.257Z,11.97
2022-09-18T11:17:25.366Z,11.92
2022-09-18T11:19:56.692Z,11.65
2022-09-18T11:22:37.915Z,11.50
2022-09-18T11:25:20.882Z,11.29
2022-09-18T11:27:50.623Z,11.29
2022-09-18T11:30:22.851Z,11.23
2022-09-18T11:32:54.693Z,10.98
2022-09-18T11:35:26.811Z,10.98
2022-09-18T11:37:57.941Z,10.93
2022-09-18T11:40:28.438Z,11.06
2022-09-18T11:42:56.161Z,10.85
2022-09-18T11:45:45.474Z,11.11
2022-09-18T11:48:24.432Z,11.07
2022-09-18T11:50:56.321Z,11.02
2022-09-18T11:53:26.308Z,11.11
2022-09-18T11:56:01.325Z,11.24
2022-09-18T11:58:33.245Z,11.33
2022-09-18T12:01:11.632Z,11.25
2022-09-18T12:03:44.865Z,11.25
2022-09-18T12:06:21.865Z,11.24
2022-09-18T12:08:57.476Z,-147.88
2022-09-18T12:11:33.500Z,11.24
2022-09-18T12:14:13.816Z,11.24
2022-09-18T12:16:46.250Z,11.19
2022-09-18T12:19:19.394Z,11.26
2022-09-18T12:21:55.032Z,11.15
2022-09-18T12:24:21.926Z,-147.88
2022-09-18T12:27:10.279Z,-147.88
2022-09-18T12:29:59.567Z,11.04
2022-09-18T12:32:39.948Z,11.06
2022-09-18T12:35:20.812Z,11.11
2022-09-18T12:38:01.733Z,11.09
2022-09-18T12:40:38.015Z,11.33
2022-09-18T12:43:30.076Z,11.52
2022-09-18T12:46:29.184Z,11.68
2022-09-18T12:49:11.052Z,11.52
2022-09-18T12:51:43.278Z,11.48
2022-09-18T12:54:39.281Z,11.38
2022-09-18T12:57:22.146Z,11.29
2022-09-18T12:59:54.846Z,11.20
2022-09-18T13:02:36.321Z,11.09
2022-09-18T13:05:07.459Z,11.14
2022-09-18T13:07:40.153Z,11.07
2022-09-18T13:10:15.497Z,10.88
2022-09-18T13:12:51.713Z,10.88
2022-09-18T13:15:22.825Z,10.93
2022-09-18T13:17:55.231Z,10.81
2022-09-18T13:20:29.010Z,10.90
2022-09-18T13:22:56.453Z,10.74
2022-09-18T13:25:32.956Z,10.69
2022-09-18T13:28:03.986Z,10.64
2022-09-18T13:30:31.847Z,10.67
2022-09-18T13:33:00.277Z,10.53
2022-09-18T13:35:30.490Z,10.41
2022-09-18T13:38:16.687Z,10.38
2022-09-18T13:40:47.914Z,10.43
2022-09-18T13:43:23.797Z,10.42
2022-09-18T13:45:51.067Z,10.32
2022-09-18T13:48:23.236Z,10.30
2022-09-18T13:50:55.735Z,10.28
2022-09-18T13:53:38.703Z,10.34
2022-09-18T13:56:08.797Z,10.41
2022-09-18T13:58:52.282Z,10.30
2022-09-18T14:01:59.066Z,10.18
2022-09-18T14:05:10.362Z,10.23
2022-09-18T14:08:04.579Z,10.15
2022-09-18T14:10:37.467Z,10.23
2022-09-18T14:13:27.905Z,10.40
2022-09-18T14:15:58.568Z,10.56
2022-09-18T14:18:29.174Z,10.66
2022-09-18T14:21:14.156Z,10.67
2022-09-18T14:24:36.417Z,10.64
2022-09-18T14:27:42.429Z,10.60
2022-09-18T14:30:17.705Z,10.55
2022-09-18T14:33:16.590Z,10.53
2022-09-18T14:35:54.094Z,10.50
2022-09-18T14:38:28.051Z,10.42
2022-09-18T14:40:58.159Z,10.48
2022-09-18T14:43:26.466Z,10.34
2022-09-18T14:45:55.260Z,10.40
2022-09-18T14:48:27.928Z,-147.88
2022-09-18T14:50:59.894Z,-147.88
2022-09-18T14:53:29.253Z,-147.88
2022-09-18T14:56:01.507Z,-147.88
2022-09-18T14:58:34.227Z,-147.88
2022-09-18T15:01:04.798Z,10.40
2022-09-18T15:03:35.213Z,9.90
2022-09-18T15:06:16.078Z,9.86
2022-09-18T15:08:45.053Z,9.81
2022-09-18T15:11:15.189Z,9.73
2022-09-18T15:13:42.905Z,9.76
2022-09-18T15:16:19.342Z,9.70
2022-09-18T15:18:46.570Z,9.70
2022-09-18T15:21:25.146Z,9.65
2022-09-18T15:23:52.306Z,9.63
2022-09-18T15:26:23.188Z,9.63
2022-09-18T15:28:52.921Z,9.74
2022-09-18T15:31:23.603Z,9.80
2022-09-18T15:33:56.370Z,9.69
2022-09-18T15:36:27.162Z,9.51
2022-09-18T15:38:55.917Z,9.53
2022-09-18T15:41:41.829Z,9.49
2022-09-18T15:45:09.132Z,9.46
2022-09-18T15:47:40.347Z,9.38
2022-09-18T15:50:34.116Z,9.42
2022-09-18T15:53:17.004Z,9.32
2022-09-18T15:56:03.011Z,9.40
2022-09-18T15:58:44.127Z,9.36
2022-09-18T16:01:21.151Z,9.27
2022-09-18T16:04:00.000Z,9.27
2022-09-18T16:06:28.988Z,9.19
2022-09-18T16:08:57.434Z,9.16
2022-09-18T16:11:41.961Z,9.19
2022-09-18T16:14:38.013Z,9.16
2022-09-18T16:17:40.189Z,8.99
2022-09-18T16:20:36.983Z,8.95
2022-09-18T16:23:19.786Z,-147.88
2022-09-18T16:26:00.713Z,8.95
2022-09-18T16:28:29.325Z,8.87
2022-09-18T16:30:57.056Z,8.87
2022-09-18T16:33:26.161Z,8.82
2022-09-18T16:36:02.268Z,8.74
2022-09-18T16:38:29.858Z,8.74
2022-09-18T16:40:56.759Z,8.68
2022-09-18T16:43:23.719Z,8.69
2022-09-18T16:45:51.143Z,8.70
2022-09-18T16:48:19.253Z,8.71
2022-09-18T16:50:47.578Z,8.68
2022-09-18T16:53:16.911Z,8.67
2022-09-18T16:55:48.279Z,8.59
2022-09-18T16:58:18.057Z,8.59
2022-09-18T17:00:45.053Z,8.53
2022-09-18T17:03:12.460Z,8.56
2022-09-18T17:05:39.836Z,8.55
2022-09-18T17:08:07.533Z,8.55
2022-09-18T17:10:36.353Z,8.54
2022-09-18T17:13:03.890Z,8.52
2022-09-18T17:15:31.819Z,8.49
2022-09-18T17:17:58.812Z,8.45
2022-09-18T17:20:25.886Z,8.47
2022-09-18T17:22:53.843Z,8.51
2022-09-18T17:25:20.814Z,8.49
2022-09-18T17:27:51.054Z,8.66
2022-09-18T17:30:19.278Z,8.70
2022-09-18T17:32:47.449Z,8.58
2022-09-18T17:35:15.061Z,8.52
2022-09-18T17:37:42.489Z,8.54
2022-09-18T17:40:11.202Z,8.49
2022-09-18T17:42:40.335Z,8.45
2022-09-18T17:45:11.253Z,8.50
2022-09-18T17:47:38.805Z,8.46
2022-09-18T17:50:08.639Z,-147.88
2022-09-18T17:52:35.924Z,8.44
2022-09-18T17:55:02.858Z,8.45
2022-09-18T17:57:31.314Z,8.46
2022-09-18T17:59:58.362Z,8.43
2022-09-18T18:02:28.046Z,8.39
2022-09-18T18:04:56.182Z,8.33
2022-09-18T18:07:23.860Z,8.06
2022-09-18T18:09:50.895Z,7.84
2022-09-18T18:12:18.606Z,7.68
2022-09-18T18:14:46.204Z,7.52
2022-09-18T18:17:14.088Z,7.43
2022-09-18T18:19:43.085Z,7.43
2022-09-18T18:22:10.040Z,7.40
2022-09-18T18:24:36.897Z,7.34
2022-09-18T18:27:05.273Z,7.34
2022-09-18T18:29:33.241Z,7.72
2022-09-18T18:32:01.015Z,7.90
2022-09-18T18:34:28.074Z,-147.88
2022-09-18T18:36:57.546Z,-147.88
2022-09-18T18:39:24.982Z,-147.88
2022-09-18T18:41:52.574Z,-147.88
2022-09-18T18:44:19.507Z,-147.88
2022-09-18T18:46:46.457Z,-147.88
2022-09-18T18:49:15.133Z,-147.88
2022-09-18T18:51:45.223Z,-147.88
2022-09-18T18:54:14.732Z,-147.88
2022-09-18T18:56:42.146Z,-147.88
2022-09-18T18:59:12.034Z,-147.88
2022-09-18T19:01:40.742Z,-147.88
2022-09-18T19:04:11.184Z,-147.88
2022-09-18T19:06:40.351Z,-147.88
2022-09-18T19:09:09.295Z,-147.88
2022-09-18T19:11:42.933Z,-147.88
2022-09-18T19:14:13.628Z,-147.88
2022-09-18T19:16:40.987Z,-147.88
2022-09-18T19:19:09.686Z,-147.88
2022-09-18T19:21:37.948Z,-147.88
2022-09-18T19:24:06.764Z,6.91
2022-09-18T19:26:34.724Z,6.84
2022-09-18T19:29:07.005Z,7.15
2022-09-18T19:31:35.975Z,7.19
2022-09-18T19:34:04.133Z,6.98
2022-09-18T19:36:31.683Z,6.98
2022-09-18T19:39:00.575Z,6.91
2022-09-18T19:41:36.194Z,6.83
2022-09-18T19:44:09.968Z,6.87
2022-09-18T19:46:37.281Z,6.83
2022-09-18T19:49:05.486Z,6.90
2022-09-18T19:51:34.843Z,6.92
2022-09-18T19:54:02.381Z,6.87
2022-09-18T19:56:42.619Z,6.81
2022-09-18T19:59:11.887Z,6.79
2022-09-18T20:01:39.113Z,6.73
2022-09-18T20:04:07.857Z,6.73
2022-09-18T20:06:36.992Z,6.74
2022-09-18T20:09:04.240Z,6.68
2022-09-18T20:11:31.401Z,6.72
2022-09-18T20:13:58.510Z,6.71
2022-09-18T20:16:27.631Z,6.68
2022-09-18T20:18:54.824Z,6.69
2022-09-18T20:21:21.861Z,6.62
2022-09-18T20:23:49.054Z,6.57
2022-09-18T20:26:17.755Z,6.56
2022-09-18T20:28:45.182Z,6.61
2022-09-18T20:31:14.612Z,6.60
2022-09-18T20:33:43.274Z,6.55
2022-09-18T20:36:11.543Z,6.58
2022-09-18T20:38:40.743Z,7.01
2022-09-18T20:41:12.264Z,7.03
2022-09-18T20:43:41.136Z,6.84
2022-09-18T20:46:17.272Z,6.69
2022-09-18T20:48:55.058Z,6.58
2022-09-18T20:51:24.523Z,6.56
2022-09-18T20:53:53.136Z,6.47
2022-09-18T20:56:21.691Z,6.45
2022-09-18T20:58:51.348Z,6.47
2022-09-18T21:01:20.453Z,6.43
2022-09-18T21:03:56.252Z,6.25
2022-09-18T21:06:24.908Z,6.24
2022-09-18T21:08:53.725Z,6.19
2022-09-18T21:11:23.493Z,6.12
2022-09-18T21:13:52.789Z,6.15
2022-09-18T21:16:22.184Z,6.13
2022-09-18T21:18:53.981Z,6.14
2022-09-18T21:21:20.933Z,6.15
2022-09-18T21:23:53.850Z,6.16
2022-09-18T21:26:21.838Z,6.13
2022-09-18T21:28:49.908Z,6.09
2022-09-18T21:31:16.976Z,6.12
2022-09-18T21:33:43.864Z,6.09
2022-09-18T21:36:12.331Z,6.06
2022-09-18T21:38:43.115Z,6.03
2022-09-18T21:41:10.610Z,6.01
2022-09-18T21:43:41.454Z,6.00
2022-09-18T21:46:11.321Z,6.02
2022-09-18T21:48:40.793Z,6.04
2022-09-18T21:51:11.060Z,6.02
2022-09-18T21:53:41.724Z,6.01
2022-09-18T21:56:11.623Z,6.01
2022-09-18T21:58:40.757Z,5.99
2022-09-18T22:01:09.621Z,5.95
2022-09-18T22:03:37.174Z,5.91
2022-09-18T22:06:04.429Z,5.92
2022-09-18T22:08:31.415Z,5.88
2022-09-18T22:11:02.277Z,5.95
2022-09-18T22:13:32.587Z,5.94
2022-09-18T22:15:59.597Z,5.90
2022-09-18T22:18:27.018Z,5.92
2022-09-18T22:20:54.270Z,5.90
2022-09-18T22:23:21.304Z,5.90
2022-09-18T22:25:48.577Z,5.95
2022-09-18T22:28:16.878Z,5.96
2022-09-18T22:30:43.733Z,5.93
2022-09-18T22:33:11.114Z,5.94
2022-09-18T22:35:37.967Z,5.92
2022-09-18T22:38:04.786Z,5.91
2022-09-18T22:40:32.777Z,5.92
2022-09-18T22:42:59.699Z,5.98
2022-09-18T22:45:27.956Z,5.98
2022-09-18T22:47:54.965Z,5.98
2022-09-18T22:50:22.588Z,6.03
2022-09-18T22:52:49.438Z,6.02
2022-09-18T22:55:16.332Z,6.04
2022-09-18T22:57:43.235Z,6.06
2022-09-18T23:00:14.704Z,6.07
2022-09-18T23:02:45.117Z,6.09
2022-09-18T23:05:12.346Z,6.14
2022-09-18T23:07:39.354Z,6.17
2022-09-18T23:10:08.069Z,6.13
2022-09-18T23:12:34.863Z,6.16
2022-09-18T23:15:01.698Z,6.17
2022-09-18T23:17:28.587Z,6.20
2022-09-18T23:19:56.737Z,6.23
2022-09-18T23:22:23.785Z,6.25
2022-09-18T23:24:51.413Z,6.28
2022-09-18T23:27:18.294Z,6.35
2022-09-18T23:29:45.164Z,6.39
2022-09-18T23:32:12.008Z,6.46
2022-09-18T23:34:39.119Z,6.47
2022-09-18T23:37:07.329Z,6.51
2022-09-18T23:39:34.941Z,6.49
2022-09-18T23:42:03.484Z,6.50
2022-09-18T23:44:31.555Z,6.51
2022-09-18T23:46:59.270Z,6.54
2022-09-18T23:49:26.740Z,6.56
2022-09-18T23:51:54.162Z,6.54
2022-09-18T23:54:24.385Z,6.58
2022-09-18T23:56:51.946Z,6.59
2022-09-18T23:59:22.845Z,6.58
